Time;durP1;ratioP1;P1;durP2;ratioP2;P2;SDS_P1;SDS_P2;PMS_P1;PMS_P2;Temp;Humidity;BMP_temperature;BMP_pressure;BME280_temperature;BME280_humidity;BME280_pressure;Samples;Min_cycle;Max_cycle;Signal;HPM_P1;HPM_P2
2023/02/09 00:01:59;;;;;;;8.97;4.90;;;-1.40;99.90;;;;;;4995789;28;20169;-69
2023/02/09 00:04:25;;;;;;;8.23;4.60;;;-1.50;99.90;;;;;;4995430;28;20196;-70
2023/02/09 00:06:50;;;;;;;8.97;4.20;;;-1.50;99.90;;;;;;4995645;28;20173;-70
2023/02/09 00:09:16;;;;;;;8.10;4.93;;;-1.50;99.90;;;;;;4995447;28;20188;-70
2023/02/09 00:14:26;;;;;;;16.63;4.33;;;-1.60;99.90;;;;;;4995216;28;20184;-70
2023/02/09 00:16:52;;;;;;;8.90;5.10;;;-1.60;99.90;;;;;;5008923;28;20831;-69
2023/02/09 00:19:19;;;;;;;6.17;4.37;;;-1.60;99.90;;;;;;5031749;28;20453;-71
2023/02/09 00:21:46;;;;;;;5.20;4.00;;;-1.60;99.90;;;;;;5034637;28;20935;-69
2023/02/09 00:24:12;;;;;;;18.23;4.77;;;-1.60;99.90;;;;;;5033956;28;20407;-70
2023/02/09 00:26:38;;;;;;;9.13;4.27;;;-1.60;99.90;;;;;;5034424;28;20407;-70
2023/02/09 00:29:03;;;;;;;8.80;4.70;;;-1.70;99.90;;;;;;5034518;28;20414;-70
2023/02/09 00:31:29;;;;;;;8.30;4.00;;;-1.70;99.90;;;;;;5034581;28;20421;-70
2023/02/09 00:33:54;;;;;;;6.63;3.87;;;-1.70;99.90;;;;;;5034479;28;20175;-70
2023/02/09 00:36:20;;;;;;;11.43;4.80;;;-1.70;99.90;;;;;;5034161;28;20171;-71
2023/02/09 00:38:46;;;;;;;6.20;3.73;;;-1.70;99.90;;;;;;5034375;28;20171;-71
2023/02/09 00:41:12;;;;;;;11.33;5.10;;;-1.80;99.90;;;;;;5034277;28;20219;-70
2023/02/09 00:43:38;;;;;;;8.63;5.23;;;-1.80;99.90;;;;;;5034457;28;20164;-70
2023/02/09 00:46:04;;;;;;;9.93;4.80;;;-1.80;99.90;;;;;;5016646;28;20789;-70
2023/02/09 00:48:29;;;;;;;13.00;5.13;;;-1.80;99.90;;;;;;4995016;28;20638;-71
2023/02/09 00:50:55;;;;;;;9.13;5.40;;;-2.00;99.90;;;;;;4994840;28;20193;-69
2023/02/09 00:53:21;;;;;;;6.30;4.17;;;-2.00;99.90;;;;;;4993503;28;20176;-71
2023/02/09 00:55:47;;;;;;;10.33;5.00;;;-2.00;99.90;;;;;;4994564;28;20172;-71
2023/02/09 00:58:13;;;;;;;7.57;4.20;;;-2.00;99.90;;;;;;4994659;28;20404;-71
2023/02/09 01:00:39;;;;;;;6.07;4.47;;;-1.80;99.90;;;;;;4994601;28;20466;-69
2023/02/09 01:03:04;;;;;;;10.13;5.10;;;-1.70;99.90;;;;;;4994612;28;20816;-68
2023/02/09 01:05:30;;;;;;;10.07;4.40;;;-1.60;99.90;;;;;;4994290;28;20172;-70
2023/02/09 01:07:56;;;;;;;10.47;5.80;;;-1.60;99.90;;;;;;4994523;28;20546;-71
2023/02/09 01:10:21;;;;;;;13.83;5.80;;;-1.60;99.90;;;;;;4994349;28;20454;-69
2023/02/09 01:12:47;;;;;;;21.43;4.50;;;-1.50;99.90;;;;;;4994386;28;20184;-70
2023/02/09 01:15:13;;;;;;;8.43;4.70;;;-1.50;99.90;;;;;;4994139;28;20662;-70
2023/02/09 01:17:39;;;;;;;10.30;5.20;;;-1.50;99.90;;;;;;5003173;28;20173;-70
2023/02/09 01:20:08;;;;;;;7.00;4.70;;;-1.50;99.90;;;;;;4994032;28;20467;-70
2023/02/09 01:22:36;;;;;;;9.53;4.50;;;-1.40;99.90;;;;;;4994280;28;20423;-72
2023/02/09 01:25:02;;;;;;;7.40;4.50;;;-1.40;99.90;;;;;;4993895;28;20408;-70
2023/02/09 01:27:28;;;;;;;13.07;5.60;;;-1.40;99.90;;;;;;5002253;28;20404;-71
2023/02/09 01:29:53;;;;;;;10.53;6.37;;;-1.40;99.90;;;;;;5023754;28;20441;-69
2023/02/09 01:32:19;;;;;;;13.93;5.00;;;-1.50;99.90;;;;;;5013674;28;20636;-70
2023/02/09 01:34:44;;;;;;;9.37;5.07;;;-1.50;99.90;;;;;;5012666;28;20173;-71
2023/02/09 01:37:10;;;;;;;12.83;5.80;;;-1.40;99.90;;;;;;5013189;28;20172;-70
2023/02/09 01:39:35;;;;;;;10.23;4.83;;;-1.40;99.90;;;;;;5013486;28;20291;-71
2023/02/09 01:42:02;;;;;;;15.43;5.00;;;-1.40;99.90;;;;;;5013377;28;20176;-70
2023/02/09 01:44:27;;;;;;;7.33;4.80;;;-1.30;99.90;;;;;;5013150;28;20873;-70
2023/02/09 01:46:53;;;;;;;8.63;4.90;;;-1.40;99.90;;;;;;4994009;28;20423;-70
2023/02/09 01:49:28;;;;;;;9.13;4.87;;;-1.40;99.90;;;;;;4993831;28;20208;-71
2023/02/09 01:52:08;;;;;;;9.80;4.83;;;-1.40;99.90;;;;;;4993608;28;20219;-70
2023/02/09 01:54:36;;;;;;;9.60;4.87;;;-1.40;99.90;;;;;;4993382;28;20415;-70
2023/02/09 01:57:07;;;;;;;8.00;4.90;;;-1.50;99.90;;;;;;4993437;28;20925;-70
2023/02/09 01:59:35;;;;;;;8.93;4.70;;;-1.60;99.90;;;;;;4993470;28;21078;-71
2023/02/09 02:02:02;;;;;;;9.40;4.97;;;-1.60;99.90;;;;;;4993381;28;20408;-72
2023/02/09 02:04:29;;;;;;;14.17;5.80;;;-1.70;99.90;;;;;;4993064;28;20504;-70
2023/02/09 02:07:00;;;;;;;7.40;4.50;;;-1.70;99.90;;;;;;4993347;28;20404;-71
2023/02/09 02:09:26;;;;;;;10.10;6.30;;;-1.80;99.90;;;;;;4993186;28;20800;-70
2023/02/09 02:11:52;;;;;;;6.77;4.97;;;-1.80;99.90;;;;;;4993446;28;20408;-70
2023/02/09 02:14:29;;;;;;;13.20;5.53;;;-1.90;99.90;;;;;;4992874;28;20168;-69
2023/02/09 02:17:06;;;;;;;8.93;4.70;;;-1.80;99.90;;;;;;5007739;28;20230;-70
2023/02/09 02:20:03;;;;;;;7.73;4.40;;;-1.90;99.90;;;;;;5012583;28;20453;-71
2023/02/09 02:22:47;;;;;;;11.70;5.20;;;-1.90;99.90;;;;;;5012856;28;20460;-69
2023/02/09 02:25:39;;;;;;;8.50;5.40;;;-1.90;99.90;;;;;;5012447;28;20570;-70
2023/02/09 02:28:08;;;;;;;5.67;4.27;;;-1.90;99.90;;;;;;5011461;28;20411;-69
2023/02/09 02:30:42;;;;;;;11.03;5.33;;;-1.90;99.90;;;;;;5012504;28;20799;-70
2023/02/09 02:33:18;;;;;;;10.00;5.90;;;-1.90;99.90;;;;;;5011018;28;20419;-71
2023/02/09 02:36:14;;;;;;;9.40;4.27;;;-1.90;99.90;;;;;;5012059;28;20771;-70
2023/02/09 02:38:55;;;;;;;12.47;6.00;;;-1.80;99.90;;;;;;5013808;28;20418;-71
2023/02/09 02:41:27;;;;;;;11.50;5.87;;;-1.80;99.90;;;;;;5021458;28;20441;-71
2023/02/09 02:44:08;;;;;;;9.50;5.57;;;-1.80;99.90;;;;;;5032144;28;20390;-70
2023/02/09 02:46:47;;;;;;;9.80;6.00;;;-1.70;99.90;;;;;;4996720;28;20490;-70
2023/02/09 02:49:25;;;;;;;9.33;5.03;;;-1.70;99.90;;;;;;4992649;28;20507;-70
2023/02/09 02:51:54;;;;;;;7.50;4.57;;;-1.80;99.90;;;;;;4992610;28;20505;-70
2023/02/09 02:54:27;;;;;;;8.00;5.47;;;-1.80;99.90;;;;;;4992351;28;20443;-70
2023/02/09 02:56:57;;;;;;;10.40;4.80;;;-1.80;99.90;;;;;;4992463;28;20795;-70
2023/02/09 02:59:51;;;;;;;16.87;6.57;;;-1.80;99.90;;;;;;4992507;28;20469;-69
2023/02/09 03:02:22;;;;;;;10.63;5.10;;;-1.80;99.90;;;;;;4991872;28;20523;-70
2023/02/09 03:04:52;;;;;;;7.33;4.43;;;-1.70;99.90;;;;;;4992325;28;20487;-70
2023/02/09 03:07:18;;;;;;;11.27;4.80;;;-1.70;99.90;;;;;;4991303;28;20898;-71
2023/02/09 03:09:52;;;;;;;18.90;5.77;;;-1.70;99.90;;;;;;4992344;28;20511;-70
2023/02/09 03:12:36;;;;;;;12.00;5.33;;;-1.80;99.90;;;;;;4992337;28;20423;-70
2023/02/09 03:15:14;;;;;;;11.17;5.50;;;-1.70;99.90;;;;;;4998509;28;20473;-70
2023/02/09 03:18:06;;;;;;;9.60;4.50;;;-1.70;99.90;;;;;;5010968;28;20414;-69
2023/02/09 03:20:42;;;;;;;9.67;5.43;;;-1.70;99.90;;;;;;5011986;28;20553;-69
2023/02/09 03:23:16;;;;;;;11.23;6.17;;;-1.70;99.90;;;;;;5011968;28;20780;-70
2023/02/09 03:25:50;;;;;;;14.00;5.80;;;-1.60;99.90;;;;;;5011698;28;20442;-71
2023/02/09 03:28:24;;;;;;;11.93;6.10;;;-1.60;99.90;;;;;;5011925;28;20461;-70
2023/02/09 03:30:51;;;;;;;11.17;6.60;;;-1.60;99.90;;;;;;5011960;28;20422;-70
2023/02/09 03:33:23;;;;;;;14.83;6.63;;;-1.60;99.90;;;;;;5011791;28;20411;-70
2023/02/09 03:35:53;;;;;;;13.60;6.00;;;-1.60;99.90;;;;;;5011756;28;20407;-70
2023/02/09 03:38:19;;;;;;;11.50;6.73;;;-1.60;99.90;;;;;;5011993;28;20746;-70
2023/02/09 03:40:44;;;;;;;7.73;5.70;;;-1.70;99.90;;;;;;5004546;28;20494;-71
2023/02/09 03:43:10;;;;;;;11.30;6.70;;;-1.80;99.90;;;;;;5008048;28;20195;-70
2023/02/09 03:45:36;;;;;;;15.00;7.97;;;-1.90;99.90;;;;;;5001322;28;20176;-70
2023/02/09 03:48:03;;;;;;;13.27;8.00;;;-2.00;99.90;;;;;;5006794;28;20160;-71
2023/02/09 03:50:30;;;;;;;12.43;8.30;;;-2.00;99.90;;;;;;5025053;28;20960;-70
2023/02/09 03:52:56;;;;;;;10.07;5.53;;;-2.10;99.90;;;;;;5031574;28;20472;-70
2023/02/09 03:55:22;;;;;;;12.97;6.20;;;-2.10;99.90;;;;;;5031014;28;20410;-70
2023/02/09 03:57:47;;;;;;;13.73;7.00;;;-2.10;99.90;;;;;;5031359;28;20442;-69
2023/02/09 04:00:13;;;;;;;14.83;7.20;;;-2.10;99.90;;;;;;5034058;28;20231;-70
2023/02/09 04:02:39;;;;;;;14.57;6.70;;;-2.10;99.90;;;;;;5035151;28;20168;-70
2023/02/09 04:05:05;;;;;;;7.87;4.83;;;-2.10;99.90;;;;;;5033475;28;20402;-69
2023/02/09 04:07:30;;;;;;;11.60;4.83;;;-2.10;99.90;;;;;;5035071;28;20209;-70
2023/02/09 04:09:56;;;;;;;10.03;6.20;;;-2.20;99.90;;;;;;5029073;28;20450;-69
2023/02/09 04:12:21;;;;;;;13.07;7.40;;;-2.20;99.90;;;;;;4995425;28;20271;-69
2023/02/09 04:14:47;;;;;;;9.50;5.97;;;-2.30;99.90;;;;;;4995153;28;20196;-70
2023/02/09 04:17:13;;;;;;;10.10;5.17;;;-2.40;99.90;;;;;;4995293;28;20173;-70
2023/02/09 04:19:38;;;;;;;10.20;6.97;;;-2.40;99.90;;;;;;4995374;28;20201;-70
2023/02/09 04:22:04;;;;;;;15.47;7.07;;;-2.50;99.90;;;;;;4995394;28;20627;-69
2023/02/09 04:24:29;;;;;;;13.60;6.47;;;-2.50;99.90;;;;;;4995135;28;20192;-69
2023/02/09 04:26:55;;;;;;;14.03;5.83;;;-2.40;99.90;;;;;;4995339;28;20172;-70
2023/02/09 04:29:20;;;;;;;10.73;6.40;;;-2.40;99.90;;;;;;4993881;28;20263;-71
2023/02/09 04:31:46;;;;;;;10.33;6.10;;;-2.40;99.90;;;;;;4995132;28;20225;-70
2023/02/09 04:34:11;;;;;;;10.47;5.10;;;-2.40;99.90;;;;;;4995209;28;20169;-70
2023/02/09 04:36:37;;;;;;;7.90;4.97;;;-2.40;99.90;;;;;;4995004;28;20177;-70
2023/02/09 04:39:02;;;;;;;11.73;5.60;;;-2.30;99.90;;;;;;4994991;28;20595;-70
2023/02/09 04:41:28;;;;;;;9.60;7.37;;;-2.30;99.90;;;;;;4994979;28;20691;-70
2023/02/09 04:43:53;;;;;;;10.00;6.10;;;-2.30;99.90;;;;;;4994907;28;20165;-71
2023/02/09 04:46:19;;;;;;;9.67;5.60;;;-2.30;99.90;;;;;;5009656;28;20175;-70
2023/02/09 04:48:45;;;;;;;9.43;5.00;;;-2.30;99.90;;;;;;5014532;28;20170;-70
2023/02/09 04:51:11;;;;;;;14.77;5.77;;;-2.30;99.90;;;;;;5014355;28;20234;-70
2023/02/09 04:53:36;;;;;;;16.07;6.37;;;-2.30;99.90;;;;;;5017531;28;20411;-70
2023/02/09 04:56:03;;;;;;;10.27;6.70;;;-2.30;99.90;;;;;;5022956;28;20188;-70
2023/02/09 05:01:17;;;;;;;22.60;6.50;;;-2.30;99.90;;;;;;5014146;28;20469;-69
2023/02/09 05:03:43;;;;;;;11.60;5.60;;;-2.30;99.90;;;;;;5014377;28;20437;-71
2023/02/09 05:06:09;;;;;;;11.77;6.33;;;-2.30;99.90;;;;;;5012573;28;20447;-70
2023/02/09 05:08:34;;;;;;;12.13;6.07;;;-2.40;99.90;;;;;;5029222;28;20188;-69
2023/02/09 05:11:00;;;;;;;9.60;4.93;;;-2.40;99.90;;;;;;4994101;28;20204;-70
2023/02/09 05:13:25;;;;;;;10.00;5.80;;;-2.30;99.90;;;;;;4994403;28;20177;-69
2023/02/09 05:15:52;;;;;;;11.67;6.13;;;-2.30;99.90;;;;;;4994213;28;20538;-70
2023/02/09 05:18:17;;;;;;;10.67;7.30;;;-2.30;99.90;;;;;;5013334;28;20330;-70
2023/02/09 05:20:44;;;;;;;12.10;5.90;;;-2.50;99.90;;;;;;5013766;28;20565;-70
2023/02/09 05:23:10;;;;;;;13.13;5.53;;;-2.50;99.90;;;;;;5013745;28;20168;-70
2023/02/09 05:25:35;;;;;;;17.53;5.07;;;-2.60;99.90;;;;;;5013595;28;20776;-69
2023/02/09 05:28:01;;;;;;;11.30;5.77;;;-2.70;99.90;;;;;;5012481;28;20442;-70
2023/02/09 05:30:26;;;;;;;10.50;5.50;;;-2.60;99.90;;;;;;5013646;28;20208;-69
2023/02/09 05:32:53;;;;;;;13.17;7.07;;;-2.60;99.90;;;;;;5013723;28;20172;-69
2023/02/09 05:35:18;;;;;;;13.60;6.50;;;-2.60;99.90;;;;;;5013366;28;20183;-70
2023/02/09 05:37:44;;;;;;;12.83;6.50;;;-2.60;99.90;;;;;;5013589;28;20506;-71
2023/02/09 05:40:10;;;;;;;11.50;5.10;;;-2.60;99.90;;;;;;4995997;28;20467;-70
2023/02/09 05:42:35;;;;;;;10.80;6.37;;;-2.60;99.90;;;;;;4993996;28;20706;-70
2023/02/09 05:45:01;;;;;;;8.33;6.40;;;-2.50;99.90;;;;;;4997494;28;20438;-70
2023/02/09 05:47:27;;;;;;;11.17;6.00;;;-2.50;99.90;;;;;;5013416;28;20240;-70
2023/02/09 05:49:52;;;;;;;12.80;6.60;;;-2.50;99.90;;;;;;5013237;28;20192;-69
2023/02/09 05:52:19;;;;;;;10.67;5.23;;;-2.50;99.90;;;;;;5013352;28;20563;-69
2023/02/09 05:54:46;;;;;;;10.03;4.90;;;-2.60;99.90;;;;;;5013038;28;20254;-70
2023/02/09 05:57:12;;;;;;;11.53;7.00;;;-2.60;99.90;;;;;;5013179;28;20411;-69
2023/02/09 05:59:38;;;;;;;10.80;6.07;;;-2.70;99.90;;;;;;5012998;28;20528;-70
2023/02/09 06:02:03;;;;;;;10.57;5.60;;;-2.70;99.90;;;;;;5004011;28;20187;-70
2023/02/09 06:04:29;;;;;;;18.33;7.50;;;-2.70;99.90;;;;;;5014078;28;20682;-70
2023/02/09 06:06:55;;;;;;;11.30;5.53;;;-2.80;99.90;;;;;;5029702;28;20652;-69
2023/02/09 06:09:21;;;;;;;10.50;6.30;;;-2.80;99.90;;;;;;5031450;28;20624;-71
2023/02/09 06:11:47;;;;;;;10.37;5.93;;;-2.90;99.90;;;;;;5032554;28;20430;-69
2023/02/09 06:14:12;;;;;;;12.90;6.03;;;-3.00;99.90;;;;;;5032572;28;20314;-70
2023/02/09 06:16:39;;;;;;;20.00;6.10;;;-2.90;99.90;;;;;;5032560;28;20183;-71
2023/02/09 06:19:05;;;;;;;15.77;5.83;;;-2.80;99.90;;;;;;5010176;28;20180;-70
2023/02/09 06:21:33;;;;;;;9.63;5.87;;;-2.80;99.90;;;;;;4992717;28;20436;-70
2023/02/09 06:23:58;;;;;;;8.60;4.87;;;-2.80;99.90;;;;;;4992993;28;20407;-70
2023/02/09 06:26:24;;;;;;;10.40;6.60;;;-2.80;99.90;;;;;;4992938;28;20774;-69
2023/02/09 06:28:49;;;;;;;14.50;6.87;;;-2.90;99.90;;;;;;4996242;28;20653;-69
2023/02/09 06:31:15;;;;;;;7.90;5.20;;;-2.80;99.90;;;;;;4993093;28;20247;-71
2023/02/09 06:33:40;;;;;;;14.07;5.30;;;-2.90;99.90;;;;;;4992936;28;20176;-69
2023/02/09 06:36:07;;;;;;;11.50;7.27;;;-2.90;99.90;;;;;;4992789;28;20173;-70
2023/02/09 06:38:34;;;;;;;13.73;5.90;;;-2.90;99.90;;;;;;4992940;28;20199;-70
2023/02/09 06:41:00;;;;;;;12.33;5.90;;;-2.90;99.90;;;;;;4992742;28;20463;-69
2023/02/09 06:43:26;;;;;;;14.47;6.73;;;-3.00;99.90;;;;;;4992836;28;20468;-70
2023/02/09 06:45:51;;;;;;;11.13;7.17;;;-3.00;99.90;;;;;;4992501;28;20172;-70
2023/02/09 06:48:17;;;;;;;14.93;7.70;;;-3.00;99.90;;;;;;4992878;28;20926;-70
2023/02/09 06:50:42;;;;;;;11.17;5.80;;;-3.10;99.90;;;;;;4992647;28;20196;-70
2023/02/09 06:53:08;;;;;;;9.73;6.30;;;-3.10;99.90;;;;;;4992664;28;20239;-69
2023/02/09 06:55:34;;;;;;;11.33;6.60;;;-3.10;99.90;;;;;;4992402;28;20526;-69
2023/02/09 06:57:59;;;;;;;9.43;6.20;;;-3.10;99.90;;;;;;4993130;28;20161;-70
2023/02/09 07:00:25;;;;;;;16.33;6.77;;;-3.00;99.90;;;;;;5011946;28;20204;-70
2023/02/09 07:02:51;;;;;;;10.13;5.77;;;-2.90;99.90;;;;;;5012152;28;20171;-71
2023/02/09 07:05:17;;;;;;;15.13;6.83;;;-2.90;99.90;;;;;;5011992;28;20396;-69
2023/02/09 07:07:44;;;;;;;13.03;6.20;;;-2.80;99.90;;;;;;5012080;28;20403;-70
2023/02/09 07:10:12;;;;;;;10.87;6.67;;;-2.70;99.90;;;;;;5012062;28;20294;-68
2023/02/09 07:12:39;;;;;;;12.83;7.20;;;-2.60;99.90;;;;;;5012094;28;20413;-70
2023/02/09 07:15:06;;;;;;;10.53;5.73;;;-2.50;99.90;;;;;;5011841;28;20403;-69
2023/02/09 07:17:33;;;;;;;14.60;7.13;;;-2.40;99.90;;;;;;5022723;28;20453;-69
2023/02/09 07:19:58;;;;;;;11.30;6.90;;;-2.30;99.90;;;;;;5012866;28;21009;-70
2023/02/09 07:22:24;;;;;;;12.30;5.60;;;-2.30;99.90;;;;;;5012075;28;20482;-71
2023/02/09 07:24:50;;;;;;;12.27;6.00;;;-2.30;99.90;;;;;;5011768;28;20642;-71
2023/02/09 07:27:16;;;;;;;15.00;7.10;;;-2.20;99.90;;;;;;5012017;28;20165;-70
2023/02/09 07:29:42;;;;;;;11.67;7.30;;;-2.10;99.90;;;;;;4992221;28;20447;-70
2023/02/09 07:32:07;;;;;;;21.80;7.87;;;-2.00;99.90;;;;;;4992481;28;20173;-70
2023/02/09 07:34:34;;;;;;;13.43;6.23;;;-1.90;99.90;;;;;;4994429;28;20196;-70
2023/02/09 07:36:59;;;;;;;13.50;7.00;;;-1.70;99.90;;;;;;4996168;28;20180;-69
2023/02/09 07:39:25;;;;;;;12.73;7.23;;;-1.60;99.90;;;;;;4996061;28;20539;-70
2023/02/09 07:41:51;;;;;;;12.57;7.10;;;-1.50;99.90;;;;;;4997496;28;20224;-70
2023/02/09 07:44:16;;;;;;;13.43;6.13;;;-1.30;99.90;;;;;;4995947;28;20169;-70
2023/02/09 07:46:42;;;;;;;10.00;5.83;;;-1.20;99.90;;;;;;5013708;28;20262;-70
2023/02/09 07:49:08;;;;;;;14.00;7.17;;;-1.00;99.90;;;;;;5015778;28;20663;-70
2023/02/09 07:51:33;;;;;;;11.97;6.03;;;-0.90;99.90;;;;;;5015513;28;20180;-71
2023/02/09 07:53:59;;;;;;;13.40;7.47;;;-0.80;99.90;;;;;;5015587;28;20161;-70
2023/02/09 07:56:26;;;;;;;16.30;6.90;;;-0.70;99.90;;;;;;5015220;28;20174;-70
2023/02/09 07:58:52;;;;;;;15.30;7.40;;;-0.50;99.90;;;;;;5015550;28;20909;-71
2023/02/09 08:01:19;;;;;;;14.30;7.20;;;-0.40;99.90;;;;;;5015335;28;20878;-70
2023/02/09 08:03:46;;;;;;;10.00;6.00;;;-0.30;99.90;;;;;;5015500;28;20403;-71
2023/02/09 08:06:18;;;;;;;11.13;7.50;;;-0.10;99.90;;;;;;5015013;28;20413;-71
2023/02/09 08:08:47;;;;;;;14.17;6.27;;;0.00;99.90;;;;;;5015224;28;20418;-71
2023/02/09 08:11:16;;;;;;;15.63;7.00;;;0.30;99.90;;;;;;5015128;28;20506;-70
2023/02/09 08:13:42;;;;;;;18.90;7.30;;;0.80;99.90;;;;;;5015286;28;21075;-70
2023/02/09 08:16:14;;;;;;;21.50;8.57;;;1.50;99.90;;;;;;5015008;28;20414;-71
2023/02/09 08:18:46;;;;;;;13.27;6.77;;;2.40;99.90;;;;;;5015053;28;20413;-70
2023/02/09 08:21:14;;;;;;;13.33;8.13;;;3.50;99.90;;;;;;5015294;28;20524;-70
2023/02/09 08:23:42;;;;;;;14.10;8.20;;;4.80;99.90;;;;;;5013659;28;20453;-70
2023/02/09 08:26:11;;;;;;;13.23;7.57;;;5.80;99.90;;;;;;5014726;28;20399;-71
2023/02/09 08:28:37;;;;;;;18.07;8.80;;;6.80;99.90;;;;;;5014662;28;20418;-70
2023/02/09 08:31:03;;;;;;;12.50;7.63;;;7.90;97.00;;;;;;5028736;28;20458;-71
2023/02/09 08:33:29;;;;;;;11.80;8.60;;;8.30;88.90;;;;;;5034640;28;20444;-71
2023/02/09 08:35:54;;;;;;;13.10;8.03;;;8.90;81.70;;;;;;5034344;28;20167;-71
2023/02/09 08:38:20;;;;;;;12.97;8.47;;;9.90;74.60;;;;;;5034546;28;20164;-71
2023/02/09 08:40:46;;;;;;;15.90;8.40;;;11.20;68.40;;;;;;5033074;28;20239;-71
2023/02/09 08:43:12;;;;;;;12.37;8.17;;;12.20;60.80;;;;;;5034491;28;20214;-71
2023/02/09 08:45:39;;;;;;;16.10;9.43;;;12.70;56.00;;;;;;5024233;28;20172;-70
2023/02/09 08:48:08;;;;;;;12.53;8.77;;;13.40;54.80;;;;;;5014407;28;20437;-71
2023/02/09 08:50:34;;;;;;;14.50;8.67;;;14.10;51.40;;;;;;5013084;28;20435;-71
2023/02/09 08:53:01;;;;;;;14.57;9.80;;;14.30;49.00;;;;;;5014562;28;20403;-71
2023/02/09 08:55:28;;;;;;;13.07;9.67;;;14.50;47.80;;;;;;5014215;28;21087;-70
2023/02/09 08:57:53;;;;;;;18.57;9.90;;;14.60;46.00;;;;;;5014428;28;20403;-70
2023/02/09 09:00:19;;;;;;;18.47;9.70;;;14.30;45.40;;;;;;5013033;28;20471;-71
2023/02/09 09:02:45;;;;;;;21.67;11.23;;;14.80;45.10;;;;;;5014156;28;20179;-71
2023/02/09 09:05:10;;;;;;;16.73;9.90;;;15.50;45.60;;;;;;5013842;28;20168;-71
2023/02/09 09:07:36;;;;;;;15.20;9.77;;;15.70;43.20;;;;;;5014229;28;20218;-71
2023/02/09 09:10:02;;;;;;;13.47;10.47;;;15.40;42.40;;;;;;5014004;28;20274;-71
2023/02/09 09:12:29;;;;;;;12.50;9.13;;;15.50;42.50;;;;;;5014171;28;20202;-70
2023/02/09 09:14:54;;;;;;;15.77;10.03;;;16.20;42.80;;;;;;5013772;28;20761;-70
2023/02/09 09:17:21;;;;;;;13.23;10.20;;;16.90;41.80;;;;;;5014030;28;20414;-72
2023/02/09 09:19:46;;;;;;;16.13;10.53;;;17.30;40.40;;;;;;5013903;28;20184;-72
2023/02/09 09:22:12;;;;;;;15.87;10.73;;;17.60;39.60;;;;;;5013822;28;20422;-72
2023/02/09 09:24:39;;;;;;;14.93;9.87;;;17.80;38.60;;;;;;5013637;28;20210;-70
2023/02/09 09:27:06;;;;;;;17.73;9.20;;;18.20;38.90;;;;;;5004096;28;20181;-72
2023/02/09 09:29:33;;;;;;;14.93;10.77;;;18.90;38.90;;;;;;4999717;28;20471;-72
2023/02/09 09:31:59;;;;;;;12.27;10.13;;;19.10;36.80;;;;;;5004252;28;20442;-73
2023/02/09 09:34:24;;;;;;;16.17;10.90;;;19.30;36.30;;;;;;5008633;28;20788;-73
2023/02/09 09:36:50;;;;;;;11.17;9.57;;;19.50;35.50;;;;;;5007816;28;20408;-73
2023/02/09 09:39:17;;;;;;;16.47;9.77;;;19.80;35.20;;;;;;5002328;28;20165;-73
2023/02/09 09:41:46;;;;;;;14.37;11.13;;;19.30;34.40;;;;;;5003524;28;20184;-73
2023/02/09 09:44:17;;;;;;;17.07;9.90;;;18.60;34.40;;;;;;5004409;28;20400;-73
2023/02/09 09:46:46;;;;;;;15.90;11.03;;;19.10;36.20;;;;;;5003340;28;20396;-73
2023/02/09 09:49:29;;;;;;;17.67;11.83;;;19.30;35.10;;;;;;5002207;28;20461;-73
2023/02/09 09:52:01;;;;;;;14.27;10.60;;;19.40;34.60;;;;;;5002003;28;20395;-74
2023/02/09 09:54:30;;;;;;;20.00;10.97;;;20.10;34.90;;;;;;5002511;28;20908;-72
2023/02/09 09:56:56;;;;;;;15.07;10.03;;;20.20;34.20;;;;;;5003482;28;20399;-73
2023/02/09 09:59:29;;;;;;;15.30;9.47;;;20.30;33.30;;;;;;5003132;28;20873;-73
2023/02/09 10:01:56;;;;;;;15.00;10.67;;;21.00;35.40;;;;;;5000791;28;20412;-73
2023/02/09 10:04:21;;;;;;;19.43;10.43;;;21.60;33.80;;;;;;5003087;28;20399;-73
2023/02/09 10:06:56;;;;;;;13.60;10.70;;;22.40;33.70;;;;;;5002239;28;20419;-73
2023/02/09 10:09:33;;;;;;;11.63;9.67;;;22.60;31.90;;;;;;5002458;28;20282;-71
2023/02/09 10:12:12;;;;;;;13.20;10.27;;;23.20;32.80;;;;;;5003943;28;20430;-73
2023/02/09 10:14:38;;;;;;;12.90;10.20;;;23.00;30.90;;;;;;5003538;28;20407;-75
2023/02/09 10:17:05;;;;;;;11.20;9.30;;;22.60;30.70;;;;;;5002594;28;20411;-73
2023/02/09 10:19:31;;;;;;;17.33;12.23;;;22.60;30.80;;;;;;5001726;28;20210;-73
2023/02/09 10:21:57;;;;;;;13.87;10.20;;;22.80;31.10;;;;;;5003303;28;20407;-73
2023/02/09 10:24:29;;;;;;;18.57;10.60;;;23.20;30.50;;;;;;5000753;28;20412;-73
2023/02/09 10:27:14;;;;;;;13.03;9.13;;;23.30;30.20;;;;;;5000667;28;20169;-73
2023/02/09 10:29:40;;;;;;;14.77;10.63;;;23.50;30.30;;;;;;5000616;28;20412;-73
2023/02/09 10:32:19;;;;;;;14.93;10.73;;;23.50;29.60;;;;;;5003915;28;20474;-73
2023/02/09 10:34:51;;;;;;;12.53;9.47;;;24.10;31.30;;;;;;5003210;28;20411;-73
2023/02/09 10:37:20;;;;;;;12.90;9.97;;;24.20;29.50;;;;;;5003347;28;20411;-73
2023/02/09 10:40:07;;;;;;;15.33;10.53;;;23.80;29.20;;;;;;5002356;28;20455;-73
2023/02/09 10:42:36;;;;;;;11.90;9.50;;;24.00;29.60;;;;;;5006317;28;20503;-72
2023/02/09 10:45:24;;;;;;;14.60;10.67;;;24.30;29.70;;;;;;5002640;28;20404;-72
2023/02/09 10:48:00;;;;;;;12.73;9.73;;;24.20;29.10;;;;;;5003203;28;20411;-72
2023/02/09 10:50:25;;;;;;;13.90;10.50;;;24.40;28.80;;;;;;5002178;28;20432;-73
2023/02/09 10:53:13;;;;;;;14.07;10.80;;;24.70;28.90;;;;;;5000095;28;20411;-71
2023/02/09 10:55:40;;;;;;;13.37;9.40;;;23.60;28.40;;;;;;4991169;28;20176;-71
2023/02/09 10:58:09;;;;;;;13.00;9.37;;;23.70;29.30;;;;;;5004869;28;20411;-72
2023/02/09 11:00:40;;;;;;;13.93;9.30;;;23.20;28.60;;;;;;5012147;28;20455;-69
2023/02/09 11:03:16;;;;;;;12.87;10.23;;;22.70;29.60;;;;;;5012157;28;20482;-72
2023/02/09 11:05:44;;;;;;;11.43;9.50;;;21.60;29.00;;;;;;5010543;28;20414;-71
2023/02/09 11:08:21;;;;;;;17.10;9.93;;;21.30;29.60;;;;;;5011953;28;20418;-72
2023/02/09 11:11:04;;;;;;;15.27;10.07;;;21.10;30.10;;;;;;5012014;28;20964;-72
2023/02/09 11:13:32;;;;;;;16.23;9.83;;;21.10;30.30;;;;;;5012045;28;20414;-71
2023/02/09 11:16:22;;;;;;;13.33;9.27;;;21.10;30.40;;;;;;5011704;28;20494;-72
2023/02/09 11:18:59;;;;;;;10.80;8.60;;;20.90;30.20;;;;;;5004060;28;20487;-71
2023/02/09 11:21:36;;;;;;;12.73;9.60;;;20.10;30.00;;;;;;4990709;28;20881;-72
2023/02/09 11:24:23;;;;;;;16.30;10.27;;;19.80;30.60;;;;;;4990804;28;20439;-72
2023/02/09 11:27:05;;;;;;;12.77;9.20;;;19.60;31.50;;;;;;4993300;28;20857;-72
2023/02/09 11:29:44;;;;;;;20.13;9.23;;;19.20;31.70;;;;;;4992008;28;20456;-71
2023/02/09 11:32:34;;;;;;;19.03;9.40;;;20.00;31.80;;;;;;4992144;28;20455;-72
2023/02/09 11:35:17;;;;;;;21.97;9.73;;;20.30;31.40;;;;;;4992093;28;20854;-70
2023/02/09 11:37:46;;;;;;;14.30;8.50;;;20.60;31.30;;;;;;4992200;28;20478;-71
2023/02/09 11:40:23;;;;;;;14.60;9.47;;;20.40;31.00;;;;;;4992176;28;20512;-71
2023/02/09 11:43:09;;;;;;;10.60;8.70;;;21.20;31.60;;;;;;4992178;28;20865;-72
2023/02/09 11:45:43;;;;;;;15.37;10.77;;;22.40;31.30;;;;;;4991887;28;20408;-71
2023/02/09 11:48:29;;;;;;;12.90;10.03;;;23.60;30.70;;;;;;4992171;28;20411;-72
2023/02/09 11:51:15;;;;;;;12.17;9.60;;;24.00;29.60;;;;;;5019312;28;20538;-72
2023/02/09 11:54:02;;;;;;;10.50;8.63;;;24.00;29.30;;;;;;5011663;28;20506;-72
2023/02/09 11:56:28;;;;;;;14.00;10.03;;;24.70;29.80;;;;;;4994042;28;20412;-72
2023/02/09 11:58:59;;;;;;;12.10;9.47;;;25.10;29.10;;;;;;4992097;28;20423;-73
2023/02/09 12:01:49;;;;;;;11.90;9.10;;;25.00;28.30;;;;;;4994673;28;20204;-73
2023/02/09 12:04:25;;;;;;;14.40;10.20;;;25.30;28.90;;;;;;5002301;28;20943;-71
2023/02/09 12:07:01;;;;;;;10.23;8.70;;;25.50;28.40;;;;;;4992110;28;20400;-72
2023/02/09 12:09:45;;;;;;;11.30;9.17;;;26.20;28.40;;;;;;4990557;28;20495;-75
2023/02/09 12:12:31;;;;;;;10.83;8.87;;;26.70;28.00;;;;;;4991977;28;20415;-73
2023/02/09 12:15:19;;;;;;;9.93;8.70;;;26.80;27.50;;;;;;4992091;28;20812;-72
2023/02/09 12:18:05;;;;;;;10.47;9.00;;;27.20;27.80;;;;;;4997062;28;20403;-72
2023/02/09 12:20:37;;;;;;;11.80;9.40;;;27.30;27.00;;;;;;4994020;28;20957;-72
2023/02/09 12:23:29;;;;;;;14.53;9.37;;;27.80;27.70;;;;;;4995647;28;20400;-76
2023/02/09 12:26:00;;;;;;;9.23;8.33;;;27.40;26.20;;;;;;4995154;28;20454;-73
2023/02/09 12:28:26;;;;;;;10.00;8.60;;;28.10;27.40;;;;;;4995275;28;20504;-73
2023/02/09 12:30:51;;;;;;;11.77;8.13;;;28.10;25.80;;;;;;4995116;28;20542;-71
2023/02/09 12:33:23;;;;;;;11.00;8.47;;;28.30;26.50;;;;;;4993980;28;20526;-73
2023/02/09 12:36:04;;;;;;;9.70;8.73;;;28.70;27.10;;;;;;5009856;28;20173;-72
2023/02/09 12:38:48;;;;;;;10.07;8.33;;;28.80;25.80;;;;;;4993951;28;20408;-71
2023/02/09 12:41:15;;;;;;;15.40;8.57;;;29.20;25.80;;;;;;4994398;28;20427;-73
2023/02/09 12:43:43;;;;;;;15.73;9.97;;;29.90;26.30;;;;;;4995140;28;20428;-73
2023/02/09 12:46:14;;;;;;;11.00;8.93;;;30.20;26.10;;;;;;5006597;28;20514;-73
2023/02/09 12:49:08;;;;;;;7.30;6.53;;;29.90;25.10;;;;;;4999178;28;21134;-73
2023/02/09 12:51:39;;;;;;;7.87;6.57;;;29.60;25.60;;;;;;4994824;28;20930;-72
2023/02/09 12:54:42;;;;;;;10.27;7.23;;;28.80;24.10;;;;;;4994799;28;20399;-72
2023/02/09 12:57:14;;;;;;;9.57;6.30;;;28.50;24.50;;;;;;4994783;28;20447;-71